METAR Data
IDs: Format: Raw Decoded Include TAF

Data at: 0526 UTC 19 Aug 2019

KAWM 190453Z AUTO 00000KT 10SM CLR 26/24 A2997 RMK AO2 SLP142 T02560244 $
KAWM 190353Z AUTO 13004KT 10SM CLR 26/24 A2997 RMK AO2 SLP144 T02610244 $
KAWM 190253Z AUTO 00000KT 10SM FEW110 25/24 A2996 RMK AO2 SLP140 T02500239 50016 $
KAWM 190153Z AUTO VRB05G17KT 10SM FEW014 BKN100 26/23 A2996 RMK AO2 LTG DSNT NE SLP142 T02610233 $
KAWM 190138Z AUTO 30003KT 10SM BKN110 26/24 A2996 RMK AO2 LTG DSNT N AND NW PRESRR T02610239 $
KAWM 190123Z AUTO 18005KT 10SM VCTS CLR 26/24 A2993 RMK AO2 LTG DSNT NW-NE T02560239 $
KAWM 190053Z AUTO 18005KT 10SM CLR 26/24 A2992 RMK AO2 LTG DSNT W-N SLP126 T02560239 $
KAWM 182353Z AUTO 17009KT 10SM CLR 26/22 A2991 RMK AO2 LTG DSNT N SLP125 T02610222 10339 20261 50009 $
KAWM 182253Z AUTO 18015G25KT 10SM FEW040 SCT047 BKN090 28/24 A2991 RMK AO2 LTG DSNT SE SLP124 T02830244 $
KAWM 182153Z AUTO 19006KT 10SM CLR 32/27 A2989 RMK AO2 LTG DSNT S SLP117 T03220267 $
KAWM 182053Z AUTO 19007KT 10SM SCT036 33/26 A2989 RMK AO2 SLP115 T03330256 56021 $
KAWM 181953Z AUTO 22004KT 10SM BKN036 32/26 A2991 RMK AO2 SLP122 T03220261 $
KAWM 181853Z AUTO 19008KT 10SM SCT032 33/26 A2992 RMK AO2 SLP126 T03330261 $
KAWM 181753Z AUTO 18006KT 10SM FEW029 33/26 A2995 RMK AO2 SLP136 T03280256 10328 20239 58003 $
KAWM 181653Z AUTO 00000KT 10SM SCT025 BKN032 32/26 A2996 RMK AO2 SLP139 T03220261 $
KAWM 181553Z AUTO 24003KT 10SM CLR 31/26 A2996 RMK AO2 SLP142 T03110256 $
KAWM 181453Z AUTO 21005KT 10SM CLR 30/26 A2996 RMK AO2 SLP139 T03000256 53007 $
KAWM 181353Z AUTO 20005KT 10SM CLR 28/24 A2995 RMK AO2 SLP135 T02830244 $
KAWM 181253Z AUTO 17005KT 10SM CLR 26/24 A2994 RMK AO2 SLP134 T02610239 $
KAWM 181153Z AUTO 17004KT 9SM CLR 24/22 A2993 RMK AO2 SLP131 T02390222 10244 20228 53011 $
KAWM 181053Z AUTO 17004KT 10SM CLR 23/22 A2992 RMK AO2 SLP127 T02330222 $
KAWM 180953Z AUTO 17003KT 9SM CLR 23/22 A2990 RMK AO2 SLP120 T02280222 $
KAWM 180853Z AUTO 15003KT 10SM CLR 24/23 A2990 RMK AO2 SLP120 T02390228 $
KAWM 180753Z AUTO 00000KT 10SM CLR 24/23 A2990 RMK AO2 SLP119 T02390228 $
KAWM 180553Z AUTO 18004KT 10SM CLR 24/23 A2991 RMK AO2 SLP123 T02440233 10300 20244 403440222 50001
KAWM 180453Z AUTO 00000KT 10SM CLR 26/23 A2992 RMK AO2 SLP124 T02610233
KAWM 180353Z AUTO 16003KT 10SM CLR 26/24 A2992 RMK AO2 SLP126 T02610239
KAWM 180253Z AUTO 17004KT 10SM CLR 26/24 A2991 RMK AO2 SLP122 T02560239 53004
KAWM 180153Z AUTO 19003KT 10SM CLR 27/24 A2990 RMK AO2 SLP121 T02670239
KAWM 180053Z AUTO 16003KT 10SM CLR 28/24 A2989 RMK AO2 SLP116 T02830239
KAWM 172353Z AUTO 18003KT 10SM CLR 30/24 A2989 RMK AO2 SLP118 T03000244 10344 20300 58003
KAWM 172253Z AUTO 19007KT 10SM CLR 32/25 A2990 RMK AO2 SLP120 T03220250
KAWM 172153Z AUTO 20005KT 10SM CLR 33/24 A2990 RMK AO2 SLP120 T03330239
KAWM 172053Z AUTO 14006KT 10SM CLR 34/22 A2990 RMK AO2 SLP121 T03390222 56024
KAWM 171953Z AUTO 19004KT 10SM CLR 34/24 A2993 RMK AO2 SLP127 T03390239
KAWM 171853Z AUTO VRB03KT 10SM FEW043 34/23 A2995 RMK AO2 SLP136 T03390233
KAWM 171753Z AUTO 18003KT 10SM CLR 33/23 A2998 RMK AO2 SLP145 T03280233 10328 20228 58002